Time;durP1;ratioP1;P1;durP2;ratioP2;P2;SDS_P1;SDS_P2;PMS_P1;PMS_P2;Temp;Humidity;BMP_temperature;BMP_pressure;BME280_temperature;BME280_humidity;BME280_pressure;Samples;Min_cycle;Max_cycle;Signal;HPM_P1;HPM_P2
2023/09/12 00:00:56;;;;;;;19.10;7.70;;;;;;;17.33;100.00;100188.83;1427760;91;21412;-82
2023/09/12 00:03:23;;;;;;;9.83;6.70;;;;;;;17.33;100.00;100190.98;1422846;91;21435;-83
2023/09/12 00:05:56;;;;;;;18.83;8.03;;;;;;;17.34;100.00;100195.82;1431758;91;22257;-83
2023/09/12 00:08:23;;;;;;;11.87;7.77;;;;;;;17.33;100.00;100194.18;1426306;91;22345;-82
2023/09/12 00:11:06;;;;;;;18.10;7.87;;;;;;;17.34;100.00;100193.14;1408182;91;21399;-83
2023/09/12 00:13:33;;;;;;;15.23;8.83;;;;;;;17.32;100.00;100189.83;1422627;91;21635;-82
2023/09/12 00:15:59;;;;;;;15.53;8.53;;;;;;;17.31;100.00;100189.53;1417813;91;21607;-82
2023/09/12 00:18:26;;;;;;;18.53;8.13;;;;;;;17.30;100.00;100190.56;1426036;91;22308;-81
2023/09/12 00:20:53;;;;;;;10.43;8.03;;;;;;;17.31;100.00;100190.86;1424875;91;21443;-82
2023/09/12 00:23:22;;;;;;;12.97;8.47;;;;;;;17.31;100.00;100190.34;1436356;91;22463;-83
2023/09/12 00:25:51;;;;;;;13.33;8.40;;;;;;;17.33;100.00;100188.83;1435255;91;22286;-83
2023/09/12 00:28:19;;;;;;;14.40;9.27;;;;;;;17.32;100.00;100192.50;1420845;91;21915;-83
2023/09/12 00:30:45;;;;;;;16.03;7.90;;;;;;;17.31;100.00;100197.03;1427379;91;21413;-83
2023/09/12 00:33:11;;;;;;;15.00;8.13;;;;;;;17.25;100.00;100195.67;1428127;91;22213;-82
2023/09/12 00:35:38;;;;;;;14.43;8.73;;;;;;;17.17;100.00;100201.17;1427747;91;22449;-83
2023/09/12 00:38:04;;;;;;;13.17;8.10;;;;;;;17.09;100.00;100200.31;1430846;91;21502;-82
2023/09/12 00:40:30;;;;;;;15.10;8.03;;;;;;;17.02;100.00;100198.09;1428881;91;21399;-83
2023/09/12 00:42:56;;;;;;;13.77;8.13;;;;;;;16.98;100.00;100198.70;1426854;91;21547;-84
2023/09/12 00:45:23;;;;;;;12.80;7.07;;;;;;;16.92;100.00;100197.63;1424011;91;21309;-84
2023/09/12 00:47:51;;;;;;;14.17;8.20;;;;;;;16.86;100.00;100195.22;1437428;91;21427;-84
2023/09/12 00:50:19;;;;;;;17.40;7.43;;;;;;;16.79;100.00;100200.19;1416840;91;21539;-83
2023/09/12 00:52:46;;;;;;;22.87;7.83;;;;;;;16.73;100.00;100203.60;1429581;91;21361;-82
2023/09/12 00:55:12;;;;;;;15.03;7.57;;;;;;;16.70;100.00;100201.62;1407474;91;21457;-84
2023/09/12 00:57:38;;;;;;;12.07;7.90;;;;;;;16.70;100.00;100197.61;1433451;90;22315;-82
2023/09/12 01:00:12;;;;;;;13.30;6.60;;;;;;;16.70;100.00;100200.80;1425845;91;21532;-82
2023/09/12 01:02:42;;;;;;;14.20;7.87;;;;;;;16.69;100.00;100199.98;1438706;91;21266;-83
2023/09/12 01:05:09;;;;;;;;;;;;;;;16.68;100.00;100200.98;1436182;91;21583;-84
2023/09/12 01:07:38;;;;;;;11.63;8.13;;;;;;;16.64;100.00;100197.57;1428674;91;20288;-84
2023/09/12 01:10:07;;;;;;;12.53;8.00;;;;;;;16.58;100.00;100197.83;1425750;91;21487;-83
2023/09/12 01:12:33;;;;;;;16.07;7.43;;;;;;;16.50;100.00;100191.28;1431108;91;21472;-82
2023/09/12 01:14:59;;;;;;;16.23;8.40;;;;;;;16.43;100.00;100194.41;1440399;91;22183;-80
2023/09/12 01:17:27;;;;;;;18.00;7.33;;;;;;;16.37;100.00;100203.16;1432113;91;21412;-81
2023/09/12 01:19:54;;;;;;;12.43;7.40;;;;;;;16.35;100.00;100203.89;1436971;91;21472;-80
2023/09/12 01:23:15;;;;;;;12.23;6.83;;;;;;;16.34;100.00;100201.73;1435974;91;21501;-81
2023/09/12 01:26:16;;;;;;;14.23;8.37;;;;;;;16.32;100.00;100206.94;1434222;91;21612;-81
2023/09/12 01:28:45;;;;;;;14.83;7.57;;;;;;;16.27;100.00;100204.00;1431206;91;21391;-80
2023/09/12 01:31:13;;;;;;;11.23;7.83;;;;;;;16.20;100.00;100204.77;1434812;91;21273;-80
2023/09/12 01:33:40;;;;;;;10.07;7.87;;;;;;;16.16;100.00;100208.00;1427216;91;21383;-80
2023/09/12 01:36:09;;;;;;;17.37;8.60;;;;;;;16.15;100.00;100209.02;1413880;91;22314;-81
2023/09/12 01:38:36;;;;;;;16.87;6.67;;;;;;;16.13;100.00;100208.38;1433421;90;21267;-80
2023/09/12 01:41:02;;;;;;;15.27;7.93;;;;;;;16.09;100.00;100205.27;1440403;91;21376;-81
2023/09/12 01:43:31;;;;;;;16.50;7.33;;;;;;;16.05;100.00;100211.98;1442078;91;21494;-81
2023/09/12 01:46:00;;;;;;;10.03;6.37;;;;;;;16.05;100.00;100211.98;1427770;90;21339;-81
2023/09/12 01:48:34;;;;;;;10.03;6.90;;;;;;;16.05;100.00;100211.16;1432780;90;22537;-81
2023/09/12 01:51:03;;;;;;;9.63;6.93;;;;;;;16.06;100.00;100209.65;1441138;91;21436;-81
2023/09/12 01:53:30;;;;;;;14.20;7.43;;;;;;;16.03;100.00;100208.69;1436762;91;21369;-80
2023/09/12 01:55:58;;;;;;;16.67;7.60;;;;;;;16.00;100.00;100201.88;1428980;90;21428;-79
2023/09/12 01:58:26;;;;;;;11.93;6.70;;;;;;;15.98;100.00;100203.09;1432485;90;22226;-81
2023/09/12 02:00:52;;;;;;;18.00;7.33;;;;;;;15.97;100.00;100207.60;1432347;90;21401;-81
2023/09/12 02:03:18;;;;;;;12.67;8.00;;;;;;;15.98;100.00;100212.42;1430092;90;21612;-81
2023/09/12 02:05:45;;;;;;;15.10;7.53;;;;;;;15.99;100.00;100210.06;1432812;90;21354;-81
2023/09/12 02:08:11;;;;;;;10.97;7.63;;;;;;;15.97;100.00;100210.27;1432309;91;21355;-80
2023/09/12 02:10:37;;;;;;;17.40;8.53;;;;;;;16.00;100.00;100211.73;1428371;91;21435;-83
2023/09/12 02:13:03;;;;;;;12.80;7.50;;;;;;;16.02;100.00;100207.02;1436082;91;21354;-82
2023/09/12 02:15:29;;;;;;;15.97;8.10;;;;;;;16.02;100.00;100209.69;1412276;91;21531;-83
2023/09/12 02:17:56;;;;;;;10.63;6.90;;;;;;;16.04;100.00;100214.34;1431175;91;21413;-83
2023/09/12 02:20:22;;;;;;;14.43;7.63;;;;;;;16.05;100.00;100210.64;1433451;90;22507;-84
2023/09/12 02:22:48;;;;;;;13.93;6.87;;;;;;;16.07;100.00;100207.80;1431030;91;21509;-85
2023/09/12 02:25:14;;;;;;;18.93;8.50;;;;;;;16.07;100.00;100204.62;1427453;91;21428;-85
2023/09/12 02:27:40;;;;;;;14.20;7.70;;;;;;;16.08;100.00;100204.92;1433744;90;22263;-82
2023/09/12 02:30:08;;;;;;;10.57;7.30;;;;;;;16.08;100.00;100207.59;1438186;91;21435;-86
2023/09/12 02:32:34;;;;;;;14.77;8.27;;;;;;;16.07;100.00;100209.95;1434136;91;21339;-86
2023/09/12 02:35:01;;;;;;;9.20;7.60;;;;;;;16.05;100.00;100205.30;1431161;90;21659;-85
2023/09/12 02:37:27;;;;;;;9.70;6.87;;;;;;;16.03;100.00;100204.69;1431680;91;21428;-85
2023/09/12 02:39:53;;;;;;;18.23;7.70;;;;;;;16.00;100.00;100205.06;1431053;91;21391;-84
2023/09/12 02:42:19;;;;;;;16.27;7.80;;;;;;;15.98;100.00;100211.09;1439290;91;21524;-84
2023/09/12 02:44:45;;;;;;;16.00;8.33;;;;;;;15.95;100.00;100206.95;1429943;91;21486;-83
2023/09/12 02:47:11;;;;;;;20.50;7.50;;;;;;;15.93;100.00;100214.83;1431045;91;22506;-83
2023/09/12 02:49:37;;;;;;;12.87;7.80;;;;;;;15.90;100.00;100201.34;1410149;91;21468;-83
2023/09/12 02:52:04;;;;;;;16.17;7.50;;;;;;;15.88;100.00;100206.55;1432526;90;22416;-83
2023/09/12 02:54:30;;;;;;;22.87;8.63;;;;;;;15.83;100.00;100210.30;1427376;90;21339;-84
2023/09/12 02:56:57;;;;;;;13.47;7.80;;;;;;;15.77;100.00;100210.03;1439752;91;22558;-84
2023/09/12 02:59:23;;;;;;;17.43;7.13;;;;;;;15.71;100.00;100202.78;1435722;91;21354;-83
2023/09/12 03:01:49;;;;;;;14.03;8.13;;;;;;;15.66;100.00;100209.14;1431408;91;21384;-83
2023/09/12 03:04:16;;;;;;;11.60;6.77;;;;;;;15.60;100.00;100213.89;1438138;91;22279;-84
2023/09/12 03:06:42;;;;;;;18.07;7.27;;;;;;;15.54;100.00;100211.97;1429855;91;21354;-84
2023/09/12 03:09:08;;;;;;;13.27;7.73;;;;;;;15.50;100.00;100205.33;1439206;91;21392;-83
2023/09/12 03:11:34;;;;;;;15.00;8.40;;;;;;;15.48;100.00;100207.38;1439816;91;22204;-84
2023/09/12 03:14:00;;;;;;;14.63;7.03;;;;;;;15.50;100.00;100209.33;1436308;91;21466;-84
2023/09/12 03:16:26;;;;;;;11.47;7.97;;;;;;;15.46;100.00;100213.39;1431407;90;21612;-84
2023/09/12 03:18:52;;;;;;;10.40;7.33;;;;;;;15.40;100.00;100212.80;1411979;91;21397;-84
2023/09/12 03:21:18;;;;;;;15.37;7.70;;;;;;;15.35;100.00;100216.00;1415704;91;21296;-84
2023/09/12 03:23:44;;;;;;;22.77;8.23;;;;;;;15.28;100.00;100216.44;1432058;91;22344;-84
2023/09/12 03:26:10;;;;;;;12.67;8.27;;;;;;;15.24;100.00;100219.13;1434829;91;21495;-84
2023/09/12 03:28:37;;;;;;;12.90;7.87;;;;;;;15.22;100.00;100223.80;1436276;91;21442;-85
2023/09/12 03:31:13;;;;;;;15.20;7.60;;;;;;;15.19;100.00;100221.02;1419067;91;21397;-85
2023/09/12 03:33:41;;;;;;;15.97;6.90;;;;;;;15.18;100.00;100219.86;1430487;91;21441;-84
2023/09/12 03:36:08;;;;;;;11.60;7.23;;;;;;;15.17;100.00;100227.03;1436514;91;22889;-84
2023/09/12 03:42:34;;;;;;;13.10;7.33;;;;;;;15.18;100.00;100234.52;1431355;91;21626;-83
2023/09/12 03:45:03;;;;;;;9.63;7.50;;;;;;;15.15;100.00;100230.37;1440116;91;21413;-82
2023/09/12 03:47:29;;;;;;;15.20;7.77;;;;;;;15.14;100.00;100234.06;1433990;90;21546;-84
2023/09/12 03:49:55;;;;;;;17.17;7.97;;;;;;;15.12;100.00;100236.90;1438630;90;22450;-83
2023/09/12 03:52:21;;;;;;;9.37;7.50;;;;;;;15.11;100.00;100236.58;1436906;91;21427;-84
2023/09/12 03:54:48;;;;;;;19.07;7.93;;;;;;;15.08;100.00;100236.95;1432821;91;21348;-84
2023/09/12 03:57:14;;;;;;;15.20;8.27;;;;;;;15.07;100.00;100243.78;1416245;91;22330;-81
2023/09/12 03:59:40;;;;;;;23.87;9.60;;;;;;;15.01;100.00;100234.67;1435188;91;22322;-81
2023/09/12 04:02:06;;;;;;;16.63;8.30;;;;;;;15.01;100.00;100236.52;1438823;91;21397;-81
2023/09/12 04:04:32;;;;;;;20.07;8.90;;;;;;;15.01;100.00;100229.85;1450358;91;21340;-80
2023/09/12 04:06:59;;;;;;;11.73;8.40;;;;;;;15.02;100.00;100228.86;1441247;91;21317;-81
2023/09/12 04:09:25;;;;;;;11.30;8.73;;;;;;;15.01;100.00;100230.67;1439879;91;22344;-81
2023/09/12 04:11:51;;;;;;;20.70;9.13;;;;;;;15.01;100.00;100233.34;1441636;90;21413;-81
2023/09/12 04:14:17;;;;;;;14.97;9.30;;;;;;;15.00;100.00;100231.69;1443637;91;21376;-81
2023/09/12 04:16:43;;;;;;;16.70;10.10;;;;;;;15.02;100.00;100230.19;1440270;91;22307;-81
2023/09/12 04:19:09;;;;;;;15.23;8.60;;;;;;;15.04;100.00;100237.48;1442719;91;21420;-82
2023/09/12 04:21:36;;;;;;;14.13;8.50;;;;;;;15.05;100.00;100237.83;1447970;91;21622;-82
2023/09/12 04:24:02;;;;;;;14.97;8.73;;;;;;;15.11;100.00;100239.76;1435633;91;21421;-82
2023/09/12 04:26:28;;;;;;;12.87;8.13;;;;;;;15.16;100.00;100241.35;1443798;90;21398;-81
2023/09/12 04:28:54;;;;;;;11.90;7.67;;;;;;;15.19;100.00;100242.34;1416794;91;22288;-82
2023/09/12 04:31:20;;;;;;;21.50;9.27;;;;;;;15.21;100.00;100240.31;1418154;91;21412;-81
2023/09/12 04:33:46;;;;;;;14.00;7.87;;;;;;;15.27;100.00;100248.91;1432707;91;21746;-81
2023/09/12 04:36:13;;;;;;;12.70;7.63;;;;;;;15.28;100.00;100245.25;1431823;91;21649;-83
2023/09/12 04:38:39;;;;;;;14.90;7.73;;;;;;;15.32;100.00;100243.03;1415325;91;21419;-82
2023/09/12 04:41:06;;;;;;;11.40;6.70;;;;;;;15.35;100.00;100247.49;1413750;91;21383;-80
2023/09/12 04:43:33;;;;;;;13.63;8.30;;;;;;;15.43;100.00;100246.59;1441080;91;21316;-79
2023/09/12 04:45:59;;;;;;;12.20;8.50;;;;;;;15.48;100.00;100247.37;1441955;91;21368;-80
2023/09/12 04:48:25;;;;;;;17.37;8.03;;;;;;;15.52;100.00;100251.32;1415053;91;21538;-80
2023/09/12 04:50:51;;;;;;;17.30;8.50;;;;;;;15.54;100.00;100248.80;1417635;91;21512;-79
2023/09/12 04:53:18;;;;;;;15.73;8.43;;;;;;;15.57;100.00;100260.43;1425425;90;22323;-79
2023/09/12 04:55:44;;;;;;;12.03;7.63;;;;;;;15.61;100.00;100254.72;1440016;91;21427;-80
2023/09/12 04:58:10;;;;;;;15.97;7.50;;;;;;;15.65;100.00;100255.52;1417051;91;22469;-80
2023/09/12 05:00:38;;;;;;;16.90;8.23;;;;;;;15.70;100.00;100261.13;1439321;90;22137;-81
2023/09/12 05:03:04;;;;;;;14.77;7.47;;;;;;;15.76;100.00;100259.05;1433840;91;22315;-80
2023/09/12 05:05:31;;;;;;;16.83;8.10;;;;;;;15.86;100.00;100260.63;1433245;91;21406;-80
2023/09/12 05:07:57;;;;;;;17.23;9.90;;;;;;;15.94;100.00;100263.17;1431835;90;21391;-80
2023/09/12 05:10:23;;;;;;;18.67;9.17;;;;;;;15.98;100.00;100263.14;1438683;91;22241;-80
2023/09/12 05:12:49;;;;;;;22.87;10.33;;;;;;;16.00;100.00;100261.94;1439514;91;22388;-80
2023/09/12 05:15:15;;;;;;;22.90;9.13;;;;;;;16.04;100.00;100260.23;1438007;91;21391;-82
2023/09/12 05:17:41;;;;;;;19.57;8.23;;;;;;;16.08;100.00;100263.66;1438473;91;21450;-81
2023/09/12 05:20:09;;;;;;;17.43;8.43;;;;;;;16.15;100.00;100263.23;1440340;91;21339;-81
2023/09/12 05:22:35;;;;;;;41.30;10.17;;;;;;;16.24;100.00;100266.63;1434320;91;21498;-81
2023/09/12 05:25:01;;;;;;;31.77;9.50;;;;;;;16.30;100.00;100265.05;1433841;91;21391;-82
2023/09/12 05:27:27;;;;;;;21.00;9.43;;;;;;;16.36;100.00;100266.95;1415033;91;22447;-82
2023/09/12 05:29:53;;;;;;;14.60;8.87;;;;;;;16.39;100.00;100267.39;1435522;91;21406;-81
2023/09/12 05:32:20;;;;;;;14.10;9.60;;;;;;;16.41;100.00;100261.88;1436397;91;21382;-82
2023/09/12 05:34:49;;;;;;;20.47;10.10;;;;;;;16.46;100.00;100264.81;1431908;90;21391;-83
2023/09/12 05:37:14;;;;;;;23.17;9.73;;;;;;;16.52;100.00;100272.06;1440766;91;21566;-81
2023/09/12 05:39:40;;;;;;;21.07;9.60;;;;;;;16.61;100.00;100273.59;1434939;91;21435;-81
2023/09/12 05:42:06;;;;;;;18.87;9.63;;;;;;;16.74;100.00;100272.05;1437448;90;22322;-81
2023/09/12 05:44:32;;;;;;;26.83;10.73;;;;;;;16.87;100.00;100269.54;1423765;91;21531;-82
2023/09/12 05:46:59;;;;;;;28.50;10.27;;;;;;;17.01;100.00;100275.31;1400210;91;21354;-81
2023/09/12 05:49:25;;;;;;;18.77;9.47;;;;;;;17.14;100.00;100272.73;1436536;91;21398;-81
2023/09/12 05:51:51;;;;;;;27.70;11.87;;;;;;;17.27;100.00;100276.03;1429235;91;22296;-79
2023/09/12 05:54:19;;;;;;;24.83;10.13;;;;;;;17.42;100.00;100278.59;1420490;91;21457;-80
2023/09/12 05:56:47;;;;;;;22.93;10.03;;;;;;;17.58;100.00;100283.64;1439076;91;22322;-81
2023/09/12 05:59:13;;;;;;;18.80;10.00;;;;;;;17.73;100.00;100282.17;1419440;91;21368;-80
2023/09/12 06:01:40;;;;;;;22.17;10.70;;;;;;;17.87;100.00;100275.59;1439475;90;21591;-78
2023/09/12 06:04:06;;;;;;;17.77;9.27;;;;;;;18.01;100.00;100278.61;1442385;90;22271;-78
2023/09/12 06:06:33;;;;;;;18.45;10.40;;;;;;;18.17;100.00;100280.95;1433798;91;21865;-78
2023/09/12 06:08:59;;;;;;;24.60;9.60;;;;;;;18.35;100.00;100277.70;1434473;90;21397;-78
2023/09/12 06:11:25;;;;;;;21.80;11.65;;;;;;;18.54;100.00;100280.13;1437244;91;22307;-78
2023/09/12 06:13:51;;;;;;;15.55;10.23;;;;;;;18.71;100.00;100277.89;1421988;91;21479;-79
2023/09/12 06:16:17;;;;;;;18.10;9.55;;;;;;;18.85;100.00;100284.95;1437152;91;21435;-79
2023/09/12 06:18:43;;;;;;;28.77;10.80;;;;;;;18.98;100.00;100285.98;1414413;91;21427;-79
2023/09/12 06:21:10;;;;;;;20.20;9.08;;;;;;;19.12;100.00;100290.31;1444547;90;21406;-80
2023/09/12 06:23:37;;;;;;;16.37;10.20;;;;;;;19.24;100.00;100288.64;1437677;91;21458;-79
2023/09/12 06:26:03;;;;;;;21.75;9.60;;;;;;;19.37;100.00;100294.02;1427849;91;21383;-79
2023/09/12 06:28:31;;;;;;;23.18;11.60;;;;;;;19.52;100.00;100298.33;1435873;91;22289;-83
2023/09/12 06:30:58;;;;;;;19.07;9.40;;;;;;;19.65;100.00;100301.03;1434658;90;21397;-83
2023/09/12 06:33:28;;;;;;;31.73;10.48;;;;;;;19.78;100.00;100300.97;1434532;91;21383;-88
2023/09/12 06:35:54;;;;;;;28.95;11.38;;;;;;;19.96;100.00;100305.66;1433938;90;22507;-84
2023/09/12 06:38:22;;;;;;;37.55;9.98;;;;;;;20.11;100.00;100300.55;1432721;90;21427;-85
2023/09/12 06:40:49;;;;;;;22.48;10.10;;;;;;;20.24;100.00;100301.31;1439178;91;21316;-88
2023/09/12 06:43:15;;;;;;;25.72;9.53;;;;;;;20.37;100.00;100303.62;1430534;90;21449;-84
2023/09/12 06:45:42;;;;;;;29.63;8.25;;;;;;;20.47;100.00;100307.50;1420509;91;21500;-86
2023/09/12 06:48:08;;;;;;;20.45;8.43;;;;;;;20.58;100.00;100310.06;1432920;91;21272;-86
2023/09/12 06:50:34;;;;;;;21.57;8.58;;;;;;;20.70;100.00;100305.64;1429658;91;21812;-86
2023/09/12 06:53:00;;;;;;;17.98;8.18;;;;;;;20.81;100.00;100307.34;1431282;91;21486;-85
2023/09/12 06:55:28;;;;;;;20.72;9.10;;;;;;;20.95;100.00;100305.67;1430612;91;22279;-86
2023/09/12 06:57:54;;;;;;;18.98;8.28;;;;;;;21.05;100.00;100305.17;1435746;91;21434;-88
2023/09/12 07:00:20;;;;;;;27.50;8.33;;;;;;;21.05;100.00;100300.31;1427882;90;21533;-84
2023/09/12 07:02:46;;;;;;;18.42;8.25;;;;;;;21.19;100.00;100313.44;1431717;90;21391;-88
2023/09/12 07:05:13;;;;;;;19.00;8.50;;;;;;;21.27;100.00;100308.84;1428652;91;22366;-86
2023/09/12 07:07:39;;;;;;;27.15;9.75;;;;;;;21.41;100.00;100310.39;1433197;90;21405;-86
2023/09/12 07:10:06;;;;;;;27.48;9.10;;;;;;;21.54;100.00;100315.63;1434629;91;21376;-84
2023/09/12 07:12:33;;;;;;;45.67;9.83;;;;;;;21.66;100.00;100314.38;1360096;91;21332;-87
2023/09/12 07:14:59;;;;;;;29.70;8.18;;;;;;;21.76;100.00;100313.34;1343402;92;21265;-84
2023/09/12 07:17:30;;;;;;;18.23;8.83;;;;;;;21.87;100.00;100314.48;1367034;91;21419;-86
2023/09/12 07:19:56;;;;;;;68.70;10.75;;;;;;;21.97;100.00;100310.72;1512956;91;21272;-89
2023/09/12 07:22:22;;;;;;;27.80;7.10;;;;;;;22.04;100.00;100312.83;1361568;90;21281;-86
2023/09/12 07:24:48;;;;;;;24.32;7.33;;;;;;;22.18;100.00;100318.06;1366802;90;21431;-85
2023/09/12 07:27:15;;;;;;;24.27;7.65;;;;;;;22.34;100.00;100309.36;1361765;90;21333;-81
2023/09/12 07:29:41;;;;;;;24.75;7.95;;;;;;;22.44;100.00;100311.00;1361253;90;21236;-80
2023/09/12 07:32:07;;;;;;;22.35;7.53;;;;;;;22.57;100.00;100311.33;1367262;91;21458;-80
2023/09/12 07:34:34;;;;;;;18.48;8.30;;;;;;;22.69;100.00;100308.66;1360784;90;22267;-83
2023/09/12 07:37:01;;;;;;;17.52;6.53;;;;;;;22.81;100.00;100310.86;1361549;91;21340;-82
2023/09/12 07:39:27;;;;;;;41.28;8.03;;;;;;;22.94;100.00;100308.49;1366737;91;21244;-81
2023/09/12 07:41:53;;;;;;;26.97;8.45;;;;;;;23.09;100.00;100310.77;1513091;90;22022;-82
2023/09/12 07:44:20;;;;;;;17.12;6.65;;;;;;;23.24;100.00;100308.43;1385901;90;21405;-83
2023/09/12 07:46:47;;;;;;;23.22;7.25;;;;;;;23.36;100.00;100307.93;1428772;91;22248;-82
2023/09/12 07:49:13;;;;;;;15.35;6.40;;;;;;;23.52;100.00;100310.97;1433188;91;21613;-81
2023/09/12 07:51:39;;;;;;;20.25;7.08;;;;;;;23.63;100.00;100306.91;1434874;90;21324;-83
2023/09/12 07:54:05;;;;;;;25.30;7.00;;;;;;;23.75;100.00;100310.97;1432523;90;22264;-81
2023/09/12 07:56:35;;;;;;;18.87;7.08;;;;;;;23.86;100.00;100314.19;1429688;91;21383;-83
2023/09/12 07:59:01;;;;;;;23.13;6.97;;;;;;;23.97;100.00;100319.82;1429934;91;21569;-83
2023/09/12 08:01:27;;;;;;;20.82;6.83;;;;;;;24.06;100.00;100321.08;1428811;91;21376;-82
2023/09/12 08:03:54;;;;;;;29.75;7.42;;;;;;;24.15;100.00;100316.94;1431872;91;22050;-82
2023/09/12 08:06:20;;;;;;;14.25;6.55;;;;;;;24.26;100.00;100322.03;1425386;90;21339;-82
2023/09/12 08:08:46;;;;;;;10.08;6.28;;;;;;;24.35;100.00;100315.16;1429684;91;22300;-85
2023/09/12 08:11:12;;;;;;;15.03;6.75;;;;;;;24.48;100.00;100318.13;1430613;90;21944;-84
2023/09/12 08:13:38;;;;;;;17.98;6.42;;;;;;;24.58;100.00;100314.81;1430819;90;21302;-84
2023/09/12 08:16:04;;;;;;;20.62;6.53;;;;;;;24.65;100.00;100312.22;1431377;91;21768;-83
2023/09/12 08:18:31;;;;;;;17.02;7.67;;;;;;;24.71;100.00;100308.54;1431975;91;21406;-85
2023/09/12 08:20:57;;;;;;;21.87;6.22;;;;;;;24.82;100.00;100313.61;1434738;91;21551;-82
2023/09/12 08:23:23;;;;;;;20.45;5.85;;;;;;;24.91;100.00;100314.02;1433562;91;21883;-86
2023/09/12 08:25:50;;;;;;;16.67;6.30;;;;;;;25.03;100.00;100306.67;1412083;91;21392;-81
2023/09/12 08:28:16;;;;;;;13.40;5.72;;;;;;;25.15;100.00;100306.08;1429411;90;22338;-83
2023/09/12 08:30:47;;;;;;;27.17;6.53;;;;;;;25.23;100.00;100301.30;1428509;91;21973;-83
2023/09/12 08:33:13;;;;;;;20.72;7.20;;;;;;;25.35;100.00;100302.05;1411842;91;21406;-81
2023/09/12 08:35:39;;;;;;;18.48;5.60;;;;;;;25.44;100.00;100304.07;1432844;91;21646;-80
2023/09/12 08:38:06;;;;;;;30.40;6.20;;;;;;;25.50;100.00;100313.09;1432195;91;21398;-84
2023/09/12 08:40:35;;;;;;;21.73;7.62;;;;;;;25.52;100.00;100311.47;1360210;90;21431;-83
2023/09/12 08:43:06;;;;;;;23.47;7.20;;;;;;;25.59;100.00;100310.77;1366647;90;21450;-83
2023/09/12 08:45:32;;;;;;;18.42;7.15;;;;;;;25.69;100.00;100315.50;1356988;92;21311;-83
2023/09/12 08:48:01;;;;;;;19.42;6.87;;;;;;;25.80;100.00;100315.92;1361398;91;21396;-83
2023/09/12 08:50:31;;;;;;;24.10;6.37;;;;;;;25.88;100.00;100316.88;1505829;91;21383;-84
2023/09/12 08:52:56;;;;;;;21.07;7.28;;;;;;;25.98;100.00;100321.09;1511862;91;21444;-84
2023/09/12 08:55:22;;;;;;;13.48;5.53;;;;;;;26.03;100.00;100312.19;1361254;91;21326;-84
2023/09/12 08:57:50;;;;;;;16.48;7.28;;;;;;;26.15;100.00;100313.41;1362107;91;22376;-80
2023/09/12 09:00:17;;;;;;;13.70;6.12;;;;;;;26.28;100.00;100319.81;1358291;91;22139;-82
2023/09/12 09:02:45;;;;;;;16.75;6.00;;;;;;;26.39;100.00;100324.28;1360420;91;21235;-86
2023/09/12 09:05:12;;;;;;;14.98;6.03;;;;;;;26.50;100.00;100317.10;1360771;91;21296;-81
2023/09/12 09:07:43;;;;;;;20.48;4.87;;;;;;;26.62;100.00;100321.02;1412536;91;21428;-85
2023/09/12 09:10:18;;;;;;;12.80;4.97;;;;;;;26.75;100.00;100319.23;1359247;90;22204;-84
2023/09/12 09:12:46;;;;;;;36.48;6.65;;;;;;;26.91;100.00;100316.13;1512957;90;22034;-84
2023/09/12 09:15:29;;;;;;;17.77;5.87;;;;;;;27.06;100.00;100318.14;1365323;91;21295;-81
2023/09/12 09:18:00;;;;;;;17.77;5.42;;;;;;;27.13;99.86;100316.01;1351677;91;21295;-83
2023/09/12 09:20:34;;;;;;;29.77;5.95;;;;;;;27.21;98.93;100315.56;1511926;91;21332;-82
2023/09/12 09:23:07;;;;;;;15.23;5.53;;;;;;;27.29;99.65;100310.20;1507169;90;22080;-86
2023/09/12 09:25:34;;;;;;;18.25;5.50;;;;;;;27.40;97.79;100309.19;1491841;91;21407;-82
2023/09/12 09:28:04;;;;;;;23.00;6.67;;;;;;;27.53;98.13;100308.70;1360666;90;21266;-81
2023/09/12 09:30:47;;;;;;;14.80;4.87;;;;;;;27.63;96.95;100307.96;1364567;90;21251;-79
2023/09/12 09:33:15;;;;;;;18.85;6.65;;;;;;;27.66;84.05;100307.44;1512047;91;21347;-84
2023/09/12 09:35:42;;;;;;;21.37;6.67;;;;;;;27.74;85.25;100311.02;1359239;91;21251;-82
2023/09/12 09:38:09;;;;;;;13.18;6.45;;;;;;;27.86;84.99;100306.20;1504721;90;22227;-84
2023/09/12 09:40:36;;;;;;;10.93;4.90;;;;;;;27.98;84.34;100310.60;1361360;91;21414;-80
2023/09/12 09:43:04;;;;;;;21.33;5.40;;;;;;;28.07;84.22;100311.72;1360187;91;22181;-82
2023/09/12 09:45:33;;;;;;;15.98;5.30;;;;;;;28.16;79.19;100308.75;1395127;90;21405;-85
2023/09/12 09:48:07;;;;;;;18.35;6.37;;;;;;;28.25;78.21;100303.61;1429992;90;22389;-84
2023/09/12 09:50:37;;;;;;;19.80;6.08;;;;;;;28.31;78.26;100306.61;1434963;91;21471;-84
2023/09/12 09:53:06;;;;;;;25.90;6.33;;;;;;;28.36;77.97;100306.62;1429995;91;21523;-81
2023/09/12 09:55:32;;;;;;;21.55;6.30;;;;;;;28.41;76.52;100307.20;1517286;90;21274;-84
2023/09/12 09:57:58;;;;;;;20.65;5.87;;;;;;;28.46;76.61;100309.97;1365040;91;21562;-84
2023/09/12 10:00:27;;;;;;;12.47;5.28;;;;;;;28.51;76.66;100310.80;1363284;90;22102;-80
2023/09/12 10:02:55;;;;;;;18.65;5.30;;;;;;;28.58;76.22;100305.08;1509965;91;21377;-84
2023/09/12 10:05:22;;;;;;;15.45;5.90;;;;;;;28.62;66.49;100306.16;1363175;91;22087;-80
2023/09/12 10:07:50;;;;;;;17.75;5.90;;;;;;;28.72;63.46;100298.02;1368877;90;21295;-79
2023/09/12 10:10:18;;;;;;;23.00;6.08;;;;;;;28.81;62.86;100292.84;1411592;90;21465;-81
2023/09/12 10:12:54;;;;;;;15.65;5.10;;;;;;;28.92;59.78;100289.59;1431048;91;21538;-82
2023/09/12 10:15:22;;;;;;;16.85;5.70;;;;;;;29.02;59.75;100292.29;1435585;90;22396;-85
2023/09/12 10:17:59;;;;;;;14.33;5.40;;;;;;;29.04;56.54;100288.78;1433869;90;21671;-82
2023/09/12 10:20:42;;;;;;;14.60;5.90;;;;;;;29.07;44.50;100292.33;1437404;90;21361;-82
2023/09/12 10:23:25;;;;;;;17.98;4.90;;;;;;;29.11;44.01;100291.22;1428955;91;21405;-85
2023/09/12 10:25:52;;;;;;;23.12;6.28;;;;;;;29.13;43.89;100299.40;1431785;91;21516;-85
2023/09/12 10:28:19;;;;;;;15.53;5.60;;;;;;;29.16;43.47;100282.50;1434582;91;22389;-81
2023/09/12 10:30:46;;;;;;;22.55;7.08;;;;;;;29.19;43.50;100281.95;1368916;91;21295;-85
2023/09/12 10:33:15;;;;;;;18.27;5.50;;;;;;;29.25;43.88;100284.13;1517300;91;22154;-85
2023/09/12 10:35:44;;;;;;;18.50;6.05;;;;;;;29.30;44.06;100274.58;1378230;90;21413;-82
2023/09/12 10:38:13;;;;;;;18.12;5.80;;;;;;;29.44;44.10;100280.28;1436631;90;21604;-84
2023/09/12 10:40:40;;;;;;;;;;;;;;;29.55;44.10;100268.77;1435231;90;21739;-85
2023/09/12 10:43:09;;;;;;;23.83;5.03;;;;;;;29.59;43.13;100272.05;1416436;91;20287;-85
2023/09/12 10:45:39;;;;;;;22.32;5.50;;;;;;;29.67;43.56;100273.42;1436359;90;21390;-83
2023/09/12 10:48:05;;;;;;;19.32;4.67;;;;;;;29.75;43.04;100272.01;1433545;91;21383;-88
2023/09/12 10:50:32;;;;;;;18.40;6.05;;;;;;;29.82;41.77;100266.53;1439184;91;21735;-81
2023/09/12 10:53:12;;;;;;;14.98;5.70;;;;;;;29.92;41.67;100260.20;1437948;91;22286;-85
2023/09/12 10:55:39;;;;;;;32.83;6.15;;;;;;;30.00;41.33;100259.62;1434162;90;21495;-84
2023/09/12 10:58:10;;;;;;;16.02;5.10;;;;;;;30.07;41.25;100259.33;1439891;91;21623;-83
2023/09/12 11:00:38;;;;;;;19.65;4.83;;;;;;;30.16;41.40;100254.09;1517299;91;21272;-85
2023/09/12 11:03:29;;;;;;;16.82;5.42;;;;;;;30.21;40.94;100246.73;1362728;90;21243;-85
2023/09/12 11:05:56;;;;;;;17.92;5.17;;;;;;;30.28;40.91;100249.12;1511598;91;21147;-85
2023/09/12 11:08:23;;;;;;;18.95;5.35;;;;;;;30.39;40.13;100248.52;1517159;90;22187;-82
2023/09/12 11:11:21;;;;;;;14.03;5.12;;;;;;;30.48;39.78;100250.34;1363127;91;21258;-84
2023/09/12 11:14:05;;;;;;;25.77;6.47;;;;;;;30.55;39.82;100250.82;1349607;91;21295;-82
2023/09/12 11:16:33;;;;;;;18.48;4.67;;;;;;;30.69;39.28;100244.16;1365412;91;21332;-85
2023/09/12 11:19:19;;;;;;;14.87;5.15;;;;;;;30.78;39.17;100248.46;1363670;91;21265;-84